sensor_id;sensor_type;location;lat;lon;timestamp;temperature;humidity
7566;DHT22;3824;48.010;7.832;2022-09-09T00:01:06;17.60;99.90
7566;DHT22;3824;48.010;7.832;2022-09-09T00:03:42;17.60;99.90
7566;DHT22;3824;48.010;7.832;2022-09-09T00:06:16;17.60;99.90
7566;DHT22;3824;48.010;7.832;2022-09-09T00:08:53;17.60;99.90
7566;DHT22;3824;48.010;7.832;2022-09-09T00:11:28;17.70;99.90
7566;DHT22;3824;48.010;7.832;2022-09-09T00:14:03;17.70;99.90
7566;DHT22;3824;48.010;7.832;2022-09-09T00:16:36;17.70;99.90
7566;DHT22;3824;48.010;7.832;2022-09-09T00:19:08;17.70;99.90
7566;DHT22;3824;48.010;7.832;2022-09-09T00:21:45;17.60;99.90
7566;DHT22;3824;48.010;7.832;2022-09-09T00:24:23;17.60;99.90
7566;DHT22;3824;48.010;7.832;2022-09-09T00:26:53;17.60;99.90
7566;DHT22;3824;48.010;7.832;2022-09-09T00:29:31;17.50;99.90
7566;DHT22;3824;48.010;7.832;2022-09-09T00:32:12;17.50;99.90
7566;DHT22;3824;48.010;7.832;2022-09-09T00:34:47;17.40;99.90
7566;DHT22;3824;48.010;7.832;2022-09-09T00:37:14;17.40;99.90
7566;DHT22;3824;48.010;7.832;2022-09-09T00:39:42;17.40;99.90
7566;DHT22;3824;48.010;7.832;2022-09-09T00:42:14;17.40;99.90
7566;DHT22;3824;48.010;7.832;2022-09-09T00:44:53;17.40;99.90
7566;DHT22;3824;48.010;7.832;2022-09-09T00:47:39;17.40;99.90
7566;DHT22;3824;48.010;7.832;2022-09-09T00:50:26;17.40;99.90
7566;DHT22;3824;48.010;7.832;2022-09-09T00:53:05;17.40;99.90
7566;DHT22;3824;48.010;7.832;2022-09-09T00:55:41;17.40;99.90
7566;DHT22;3824;48.010;7.832;2022-09-09T00:58:12;17.40;99.90
7566;DHT22;3824;48.010;7.832;2022-09-09T01:00:43;17.40;99.90
7566;DHT22;3824;48.010;7.832;2022-09-09T01:03:20;17.40;99.90
7566;DHT22;3824;48.010;7.832;2022-09-09T01:05:58;17.40;99.90
7566;DHT22;3824;48.010;7.832;2022-09-09T01:08:51;17.30;99.90
7566;DHT22;3824;48.010;7.832;2022-09-09T01:11:24;17.30;99.90
7566;DHT22;3824;48.010;7.832;2022-09-09T01:13:56;17.30;99.90
7566;DHT22;3824;48.010;7.832;2022-09-09T01:16:28;17.20;99.90
7566;DHT22;3824;48.010;7.832;2022-09-09T01:18:58;17.20;99.90
7566;DHT22;3824;48.010;7.832;2022-09-09T01:21:34;17.10;99.90
7566;DHT22;3824;48.010;7.832;2022-09-09T01:24:19;17.10;99.90
7566;DHT22;3824;48.010;7.832;2022-09-09T01:26:52;17.10;99.90
7566;DHT22;3824;48.010;7.832;2022-09-09T01:29:21;17.00;99.90
7566;DHT22;3824;48.010;7.832;2022-09-09T01:31:54;17.00;99.90
7566;DHT22;3824;48.010;7.832;2022-09-09T01:34:23;17.00;99.90
7566;DHT22;3824;48.010;7.832;2022-09-09T01:36:55;17.00;99.90
7566;DHT22;3824;48.010;7.832;2022-09-09T01:39:23;16.90;99.90
7566;DHT22;3824;48.010;7.832;2022-09-09T01:41:53;16.90;99.90
7566;DHT22;3824;48.010;7.832;2022-09-09T01:44:20;16.90;99.90
7566;DHT22;3824;48.010;7.832;2022-09-09T01:46:47;16.90;99.90
7566;DHT22;3824;48.010;7.832;2022-09-09T01:49:14;16.90;99.90
7566;DHT22;3824;48.010;7.832;2022-09-09T01:51:42;16.90;99.90
7566;DHT22;3824;48.010;7.832;2022-09-09T01:54:10;16.80;99.90
7566;DHT22;3824;48.010;7.832;2022-09-09T01:56:46;16.70;99.90
7566;DHT22;3824;48.010;7.832;2022-09-09T01:59:29;16.70;99.90
7566;DHT22;3824;48.010;7.832;2022-09-09T02:02:09;16.70;99.90
7566;DHT22;3824;48.010;7.832;2022-09-09T02:04:39;16.60;99.90
7566;DHT22;3824;48.010;7.832;2022-09-09T02:07:18;16.60;99.90
7566;DHT22;3824;48.010;7.832;2022-09-09T02:09:51;16.60;99.90
7566;DHT22;3824;48.010;7.832;2022-09-09T02:12:23;16.60;99.90
7566;DHT22;3824;48.010;7.832;2022-09-09T02:14:58;16.60;99.90
7566;DHT22;3824;48.010;7.832;2022-09-09T02:17:30;16.60;99.90
7566;DHT22;3824;48.010;7.832;2022-09-09T02:20:00;16.70;99.90
7566;DHT22;3824;48.010;7.832;2022-09-09T02:22:30;16.70;99.90
7566;DHT22;3824;48.010;7.832;2022-09-09T02:25:00;16.80;99.90
7566;DHT22;3824;48.010;7.832;2022-09-09T02:27:27;17.00;99.90
7566;DHT22;3824;48.010;7.832;2022-09-09T02:29:57;17.10;99.90
7566;DHT22;3824;48.010;7.832;2022-09-09T02:32:28;17.20;99.90
7566;DHT22;3824;48.010;7.832;2022-09-09T02:34:59;17.30;99.90
7566;DHT22;3824;48.010;7.832;2022-09-09T02:37:31;17.40;99.90
7566;DHT22;3824;48.010;7.832;2022-09-09T02:39:58;17.40;99.90
7566;DHT22;3824;48.010;7.832;2022-09-09T02:42:25;17.50;99.90
7566;DHT22;3824;48.010;7.832;2022-09-09T02:44:52;17.50;99.90
7566;DHT22;3824;48.010;7.832;2022-09-09T02:47:30;17.50;99.90
7566;DHT22;3824;48.010;7.832;2022-09-09T02:50:04;17.60;99.90
7566;DHT22;3824;48.010;7.832;2022-09-09T02:52:42;17.60;99.90
7566;DHT22;3824;48.010;7.832;2022-09-09T02:55:18;17.60;99.90
7566;DHT22;3824;48.010;7.832;2022-09-09T02:57:47;17.60;99.90
7566;DHT22;3824;48.010;7.832;2022-09-09T03:00:14;17.60;99.90
7566;DHT22;3824;48.010;7.832;2022-09-09T03:02:43;17.60;99.90
7566;DHT22;3824;48.010;7.832;2022-09-09T03:05:10;17.60;99.90
7566;DHT22;3824;48.010;7.832;2022-09-09T03:07:38;17.60;99.90
7566;DHT22;3824;48.010;7.832;2022-09-09T03:10:06;17.60;99.90
7566;DHT22;3824;48.010;7.832;2022-09-09T03:12:33;17.60;99.90
7566;DHT22;3824;48.010;7.832;2022-09-09T03:15:00;17.80;99.90
7566;DHT22;3824;48.010;7.832;2022-09-09T03:17:27;17.70;99.90
7566;DHT22;3824;48.010;7.832;2022-09-09T03:19:55;17.70;99.90
7566;DHT22;3824;48.010;7.832;2022-09-09T03:22:23;17.80;99.90
7566;DHT22;3824;48.010;7.832;2022-09-09T03:24:50;17.70;99.90
7566;DHT22;3824;48.010;7.832;2022-09-09T03:27:17;17.70;99.90
7566;DHT22;3824;48.010;7.832;2022-09-09T03:29:45;17.70;99.90
7566;DHT22;3824;48.010;7.832;2022-09-09T03:32:12;17.70;99.90
7566;DHT22;3824;48.010;7.832;2022-09-09T03:34:38;17.70;99.90
7566;DHT22;3824;48.010;7.832;2022-09-09T03:37:07;17.80;99.90
7566;DHT22;3824;48.010;7.832;2022-09-09T03:39:33;17.80;99.90
7566;DHT22;3824;48.010;7.832;2022-09-09T03:42:00;17.70;99.90
7566;DHT22;3824;48.010;7.832;2022-09-09T03:44:29;17.70;99.90
7566;DHT22;3824;48.010;7.832;2022-09-09T03:46:56;17.70;99.90
7566;DHT22;3824;48.010;7.832;2022-09-09T03:49:23;17.60;99.90
7566;DHT22;3824;48.010;7.832;2022-09-09T03:51:51;17.50;99.90
7566;DHT22;3824;48.010;7.832;2022-09-09T03:54:19;17.50;99.90
7566;DHT22;3824;48.010;7.832;2022-09-09T03:56:46;17.40;99.90
7566;DHT22;3824;48.010;7.832;2022-09-09T03:59:13;17.30;99.90
7566;DHT22;3824;48.010;7.832;2022-09-09T04:01:40;17.30;99.90
7566;DHT22;3824;48.010;7.832;2022-09-09T04:04:07;17.30;99.90
7566;DHT22;3824;48.010;7.832;2022-09-09T04:06:34;17.20;99.90
7566;DHT22;3824;48.010;7.832;2022-09-09T04:09:01;17.20;99.90
7566;DHT22;3824;48.010;7.832;2022-09-09T04:11:30;17.20;99.90
7566;DHT22;3824;48.010;7.832;2022-09-09T04:13:57;17.20;99.90
7566;DHT22;3824;48.010;7.832;2022-09-09T04:16:23;17.20;99.90
7566;DHT22;3824;48.010;7.832;2022-09-09T04:18:50;17.20;99.90
7566;DHT22;3824;48.010;7.832;2022-09-09T04:21:18;17.20;99.90
7566;DHT22;3824;48.010;7.832;2022-09-09T04:23:45;17.20;99.90
7566;DHT22;3824;48.010;7.832;2022-09-09T04:26:11;17.40;99.90
7566;DHT22;3824;48.010;7.832;2022-09-09T04:28:40;17.30;99.90
7566;DHT22;3824;48.010;7.832;2022-09-09T04:31:08;17.30;99.90
7566;DHT22;3824;48.010;7.832;2022-09-09T04:33:36;17.30;99.90
7566;DHT22;3824;48.010;7.832;2022-09-09T04:36:05;17.30;99.90
7566;DHT22;3824;48.010;7.832;2022-09-09T04:38:32;17.30;99.90
7566;DHT22;3824;48.010;7.832;2022-09-09T04:40:58;17.30;99.90
7566;DHT22;3824;48.010;7.832;2022-09-09T04:43:25;17.30;99.90
7566;DHT22;3824;48.010;7.832;2022-09-09T04:45:54;17.30;99.90
7566;DHT22;3824;48.010;7.832;2022-09-09T04:48:21;17.40;99.90
7566;DHT22;3824;48.010;7.832;2022-09-09T04:50:55;17.40;99.90
7566;DHT22;3824;48.010;7.832;2022-09-09T04:53:23;17.40;99.90
7566;DHT22;3824;48.010;7.832;2022-09-09T04:55:51;17.40;99.90
7566;DHT22;3824;48.010;7.832;2022-09-09T04:58:18;17.50;99.90
7566;DHT22;3824;48.010;7.832;2022-09-09T05:00:47;17.40;99.90
7566;DHT22;3824;48.010;7.832;2022-09-09T05:03:15;17.50;99.90
7566;DHT22;3824;48.010;7.832;2022-09-09T05:05:42;17.60;99.90
7566;DHT22;3824;48.010;7.832;2022-09-09T05:08:10;17.50;99.90
7566;DHT22;3824;48.010;7.832;2022-09-09T05:10:38;17.50;99.90
7566;DHT22;3824;48.010;7.832;2022-09-09T05:13:07;17.50;99.90
7566;DHT22;3824;48.010;7.832;2022-09-09T05:15:34;17.50;99.90
7566;DHT22;3824;48.010;7.832;2022-09-09T05:18:02;17.60;99.90
7566;DHT22;3824;48.010;7.832;2022-09-09T05:20:30;17.50;99.90
7566;DHT22;3824;48.010;7.832;2022-09-09T05:22:57;17.60;99.90
7566;DHT22;3824;48.010;7.832;2022-09-09T05:25:24;17.60;99.90
7566;DHT22;3824;48.010;7.832;2022-09-09T05:27:51;17.60;99.90
7566;DHT22;3824;48.010;7.832;2022-09-09T05:30:19;17.60;99.90
7566;DHT22;3824;48.010;7.832;2022-09-09T05:32:46;17.60;99.90
7566;DHT22;3824;48.010;7.832;2022-09-09T05:35:14;17.60;99.90
7566;DHT22;3824;48.010;7.832;2022-09-09T05:37:43;17.70;99.90
7566;DHT22;3824;48.010;7.832;2022-09-09T05:40:11;17.70;99.90
7566;DHT22;3824;48.010;7.832;2022-09-09T05:42:38;17.70;99.90
7566;DHT22;3824;48.010;7.832;2022-09-09T05:45:06;17.70;99.90
7566;DHT22;3824;48.010;7.832;2022-09-09T05:47:34;18.00;99.90
7566;DHT22;3824;48.010;7.832;2022-09-09T05:50:00;17.80;99.90
7566;DHT22;3824;48.010;7.832;2022-09-09T05:52:27;17.80;99.90
7566;DHT22;3824;48.010;7.832;2022-09-09T05:54:56;17.80;99.90
7566;DHT22;3824;48.010;7.832;2022-09-09T05:57:24;17.80;99.90
7566;DHT22;3824;48.010;7.832;2022-09-09T05:59:51;17.80;99.90
7566;DHT22;3824;48.010;7.832;2022-09-09T06:02:19;17.90;99.90
7566;DHT22;3824;48.010;7.832;2022-09-09T06:04:45;17.90;99.90
7566;DHT22;3824;48.010;7.832;2022-09-09T06:07:12;17.90;99.90
7566;DHT22;3824;48.010;7.832;2022-09-09T06:09:40;18.00;99.90
7566;DHT22;3824;48.010;7.832;2022-09-09T06:12:08;18.00;99.90
7566;DHT22;3824;48.010;7.832;2022-09-09T06:14:35;18.10;99.90
7566;DHT22;3824;48.010;7.832;2022-09-09T06:17:02;18.10;99.90
7566;DHT22;3824;48.010;7.832;2022-09-09T06:19:30;18.10;99.90
7566;DHT22;3824;48.010;7.832;2022-09-09T06:21:57;18.20;99.90
7566;DHT22;3824;48.010;7.832;2022-09-09T06:24:24;18.30;99.90
7566;DHT22;3824;48.010;7.832;2022-09-09T06:26:51;18.30;99.90
7566;DHT22;3824;48.010;7.832;2022-09-09T06:29:20;18.40;99.90
7566;DHT22;3824;48.010;7.832;2022-09-09T06:31:47;18.50;99.90
7566;DHT22;3824;48.010;7.832;2022-09-09T06:34:14;18.60;99.90
7566;DHT22;3824;48.010;7.832;2022-09-09T06:36:41;18.60;99.90
7566;DHT22;3824;48.010;7.832;2022-09-09T06:39:08;18.70;99.90
7566;DHT22;3824;48.010;7.832;2022-09-09T06:41:37;18.80;99.90
7566;DHT22;3824;48.010;7.832;2022-09-09T06:44:04;18.80;99.90
7566;DHT22;3824;48.010;7.832;2022-09-09T06:46:32;18.90;99.90
7566;DHT22;3824;48.010;7.832;2022-09-09T06:48:59;18.90;99.90
7566;DHT22;3824;48.010;7.832;2022-09-09T06:51:27;18.90;99.90
7566;DHT22;3824;48.010;7.832;2022-09-09T06:53:55;18.80;99.90
7566;DHT22;3824;48.010;7.832;2022-09-09T06:56:24;18.80;99.90
7566;DHT22;3824;48.010;7.832;2022-09-09T06:58:52;18.70;99.90
7566;DHT22;3824;48.010;7.832;2022-09-09T07:01:21;18.70;99.90
7566;DHT22;3824;48.010;7.832;2022-09-09T07:03:51;18.80;99.90
7566;DHT22;3824;48.010;7.832;2022-09-09T07:06:20;19.00;99.90
7566;DHT22;3824;48.010;7.832;2022-09-09T07:08:50;19.20;99.90
7566;DHT22;3824;48.010;7.832;2022-09-09T07:11:19;19.40;99.90
7566;DHT22;3824;48.010;7.832;2022-09-09T07:13:46;19.50;99.90
7566;DHT22;3824;48.010;7.832;2022-09-09T07:16:14;19.50;99.90
7566;DHT22;3824;48.010;7.832;2022-09-09T07:18:42;19.50;99.90
7566;DHT22;3824;48.010;7.832;2022-09-09T07:21:11;19.50;99.90
7566;DHT22;3824;48.010;7.832;2022-09-09T07:23:39;19.60;99.90
7566;DHT22;3824;48.010;7.832;2022-09-09T07:26:08;19.70;99.90
7566;DHT22;3824;48.010;7.832;2022-09-09T07:28:36;19.80;99.90
7566;DHT22;3824;48.010;7.832;2022-09-09T07:31:04;20.00;99.90
7566;DHT22;3824;48.010;7.832;2022-09-09T07:33:32;20.10;99.90
7566;DHT22;3824;48.010;7.832;2022-09-09T07:36:04;20.20;99.90
7566;DHT22;3824;48.010;7.832;2022-09-09T07:38:37;20.30;99.90
7566;DHT22;3824;48.010;7.832;2022-09-09T07:41:05;20.40;99.90
7566;DHT22;3824;48.010;7.832;2022-09-09T07:43:34;20.50;99.90
7566;DHT22;3824;48.010;7.832;2022-09-09T07:46:01;20.50;99.90
7566;DHT22;3824;48.010;7.832;2022-09-09T07:48:28;20.50;99.90
7566;DHT22;3824;48.010;7.832;2022-09-09T07:51:04;20.60;99.90
7566;DHT22;3824;48.010;7.832;2022-09-09T07:53:34;20.60;99.90
7566;DHT22;3824;48.010;7.832;2022-09-09T07:56:06;20.60;99.90
7566;DHT22;3824;48.010;7.832;2022-09-09T07:58:35;20.40;99.90
7566;DHT22;3824;48.010;7.832;2022-09-09T08:01:06;20.40;99.90
7566;DHT22;3824;48.010;7.832;2022-09-09T08:03:34;20.30;99.90
7566;DHT22;3824;48.010;7.832;2022-09-09T08:06:01;20.20;99.90
7566;DHT22;3824;48.010;7.832;2022-09-09T08:08:29;20.20;99.90
7566;DHT22;3824;48.010;7.832;2022-09-09T08:11:04;20.30;99.90
7566;DHT22;3824;48.010;7.832;2022-09-09T08:13:33;20.40;99.90
7566;DHT22;3824;48.010;7.832;2022-09-09T08:16:07;20.50;99.90
7566;DHT22;3824;48.010;7.832;2022-09-09T08:18:34;20.60;99.90
7566;DHT22;3824;48.010;7.832;2022-09-09T08:21:06;20.60;99.90
7566;DHT22;3824;48.010;7.832;2022-09-09T08:23:34;20.60;99.90
7566;DHT22;3824;48.010;7.832;2022-09-09T08:26:07;20.60;99.90
7566;DHT22;3824;48.010;7.832;2022-09-09T08:28:36;20.50;99.90
7566;DHT22;3824;48.010;7.832;2022-09-09T08:31:11;20.50;99.90
7566;DHT22;3824;48.010;7.832;2022-09-09T08:33:39;20.60;99.90
7566;DHT22;3824;48.010;7.832;2022-09-09T08:36:09;20.70;99.90
7566;DHT22;3824;48.010;7.832;2022-09-09T08:38:37;20.80;99.90
7566;DHT22;3824;48.010;7.832;2022-09-09T08:41:16;20.90;99.90
7566;DHT22;3824;48.010;7.832;2022-09-09T08:43:50;21.00;99.90
7566;DHT22;3824;48.010;7.832;2022-09-09T08:46:27;21.00;99.90
7566;DHT22;3824;48.010;7.832;2022-09-09T08:49:03;20.90;99.90
7566;DHT22;3824;48.010;7.832;2022-09-09T08:51:33;20.90;99.90
7566;DHT22;3824;48.010;7.832;2022-09-09T08:54:02;20.80;99.90
7566;DHT22;3824;48.010;7.832;2022-09-09T08:56:32;20.80;99.90
7566;DHT22;3824;48.010;7.832;2022-09-09T08:59:00;20.60;99.90
7566;DHT22;3824;48.010;7.832;2022-09-09T09:01:53;20.60;99.90
7566;DHT22;3824;48.010;7.832;2022-09-09T09:04:41;20.70;99.90
7566;DHT22;3824;48.010;7.832;2022-09-09T09:07:21;21.00;99.90
7566;DHT22;3824;48.010;7.832;2022-09-09T09:10:00;21.20;99.90
7566;DHT22;3824;48.010;7.832;2022-09-09T09:12:35;21.50;99.90
7566;DHT22;3824;48.010;7.832;2022-09-09T09:15:14;21.70;99.90
7566;DHT22;3824;48.010;7.832;2022-09-09T09:17:43;21.80;99.90
7566;DHT22;3824;48.010;7.832;2022-09-09T09:20:12;21.90;99.90
7566;DHT22;3824;48.010;7.832;2022-09-09T09:22:46;22.00;99.90
7566;DHT22;3824;48.010;7.832;2022-09-09T09:25:17;22.20;99.90
7566;DHT22;3824;48.010;7.832;2022-09-09T09:27:52;22.30;99.90
7566;DHT22;3824;48.010;7.832;2022-09-09T09:30:29;22.50;99.90
7566;DHT22;3824;48.010;7.832;2022-09-09T09:33:01;22.70;99.90
7566;DHT22;3824;48.010;7.832;2022-09-09T09:35:29;22.90;99.90
7566;DHT22;3824;48.010;7.832;2022-09-09T09:37:56;23.00;99.90
7566;DHT22;3824;48.010;7.832;2022-09-09T09:40:23;23.10;99.90
7566;DHT22;3824;48.010;7.832;2022-09-09T09:42:54;23.20;99.90
7566;DHT22;3824;48.010;7.832;2022-09-09T09:45:28;23.30;99.90
7566;DHT22;3824;48.010;7.832;2022-09-09T09:48:02;23.40;99.90
7566;DHT22;3824;48.010;7.832;2022-09-09T09:50:30;23.40;99.90
7566;DHT22;3824;48.010;7.832;2022-09-09T09:53:00;23.40;99.90
7566;DHT22;3824;48.010;7.832;2022-09-09T09:55:29;23.30;99.90
7566;DHT22;3824;48.010;7.832;2022-09-09T09:58:03;23.30;99.90
7566;DHT22;3824;48.010;7.832;2022-09-09T10:00:30;23.10;99.60
7566;DHT22;3824;48.010;7.832;2022-09-09T10:02:59;23.10;99.90
7566;DHT22;3824;48.010;7.832;2022-09-09T10:05:28;23.20;99.80
7566;DHT22;3824;48.010;7.832;2022-09-09T10:08:03;23.20;99.40
7566;DHT22;3824;48.010;7.832;2022-09-09T10:10:39;23.20;99.30
7566;DHT22;3824;48.010;7.832;2022-09-09T10:13:15;23.20;99.80
7566;DHT22;3824;48.010;7.832;2022-09-09T10:15:56;23.30;99.70
7566;DHT22;3824;48.010;7.832;2022-09-09T10:18:41;23.50;99.60
7566;DHT22;3824;48.010;7.832;2022-09-09T10:21:20;23.60;99.00
7566;DHT22;3824;48.010;7.832;2022-09-09T10:24:07;23.80;98.10
7566;DHT22;3824;48.010;7.832;2022-09-09T10:26:42;23.70;98.10
7566;DHT22;3824;48.010;7.832;2022-09-09T10:29:32;23.70;98.40
7566;DHT22;3824;48.010;7.832;2022-09-09T10:32:16;23.60;97.20
7566;DHT22;3824;48.010;7.832;2022-09-09T10:34:56;23.30;97.00
7566;DHT22;3824;48.010;7.832;2022-09-09T10:37:34;23.10;96.40
7566;DHT22;3824;48.010;7.832;2022-09-09T10:40:21;22.80;96.30
7566;DHT22;3824;48.010;7.832;2022-09-09T10:42:51;22.70;96.50
7566;DHT22;3824;48.010;7.832;2022-09-09T10:45:23;22.60;96.60
7566;DHT22;3824;48.010;7.832;2022-09-09T10:48:09;22.60;97.00
7566;DHT22;3824;48.010;7.832;2022-09-09T10:50:52;22.50;96.50
7566;DHT22;3824;48.010;7.832;2022-09-09T10:53:30;22.60;97.00
7566;DHT22;3824;48.010;7.832;2022-09-09T10:56:02;22.70;97.00
7566;DHT22;3824;48.010;7.832;2022-09-09T10:58:37;22.80;96.90
7566;DHT22;3824;48.010;7.832;2022-09-09T11:01:14;22.90;97.10
7566;DHT22;3824;48.010;7.832;2022-09-09T11:03:43;23.10;97.00
7566;DHT22;3824;48.010;7.832;2022-09-09T11:06:15;23.30;97.50
7566;DHT22;3824;48.010;7.832;2022-09-09T11:08:43;23.50;97.70
7566;DHT22;3824;48.010;7.832;2022-09-09T11:11:15;23.70;97.50
7566;DHT22;3824;48.010;7.832;2022-09-09T11:13:47;22.50;96.40
7566;DHT22;3824;48.010;7.832;2022-09-09T11:16:24;23.70;96.70
7566;DHT22;3824;48.010;7.832;2022-09-09T11:18:55;23.60;96.50
7566;DHT22;3824;48.010;7.832;2022-09-09T11:21:28;23.30;96.60
7566;DHT22;3824;48.010;7.832;2022-09-09T11:23:59;23.10;97.40
7566;DHT22;3824;48.010;7.832;2022-09-09T11:26:31;22.90;97.70
7566;DHT22;3824;48.010;7.832;2022-09-09T11:29:14;22.90;98.10
7566;DHT22;3824;48.010;7.832;2022-09-09T11:31:54;22.90;98.30
7566;DHT22;3824;48.010;7.832;2022-09-09T11:34:37;23.00;98.50
7566;DHT22;3824;48.010;7.832;2022-09-09T11:37:37;23.10;98.60
7566;DHT22;3824;48.010;7.832;2022-09-09T11:40:23;23.30;98.70
7566;DHT22;3824;48.010;7.832;2022-09-09T11:43:02;23.50;98.20
7566;DHT22;3824;48.010;7.832;2022-09-09T11:45:30;23.60;97.90
7566;DHT22;3824;48.010;7.832;2022-09-09T11:48:00;23.60;97.90
7566;DHT22;3824;48.010;7.832;2022-09-09T11:50:30;23.70;97.80
7566;DHT22;3824;48.010;7.832;2022-09-09T11:53:15;24.60;98.00
7566;DHT22;3824;48.010;7.832;2022-09-09T11:55:45;23.90;97.50
7566;DHT22;3824;48.010;7.832;2022-09-09T11:58:17;23.90;97.30
7566;DHT22;3824;48.010;7.832;2022-09-09T12:00:46;23.80;97.10
7566;DHT22;3824;48.010;7.832;2022-09-09T12:03:33;23.60;97.30
7566;DHT22;3824;48.010;7.832;2022-09-09T12:06:10;23.40;97.80
7566;DHT22;3824;48.010;7.832;2022-09-09T12:08:42;23.60;97.80
7566;DHT22;3824;48.010;7.832;2022-09-09T12:11:10;23.80;96.50
7566;DHT22;3824;48.010;7.832;2022-09-09T12:13:37;23.80;95.10
7566;DHT22;3824;48.010;7.832;2022-09-09T12:16:05;23.80;95.10
7566;DHT22;3824;48.010;7.832;2022-09-09T12:19:04;23.70;95.10
7566;DHT22;3824;48.010;7.832;2022-09-09T12:21:36;23.70;94.70
7566;DHT22;3824;48.010;7.832;2022-09-09T12:24:07;23.70;94.50
7566;DHT22;3824;48.010;7.832;2022-09-09T12:26:37;23.90;94.30
7566;DHT22;3824;48.010;7.832;2022-09-09T12:29:14;24.10;93.50
7566;DHT22;3824;48.010;7.832;2022-09-09T12:31:49;24.20;93.10
7566;DHT22;3824;48.010;7.832;2022-09-09T12:34:30;24.00;93.50
7566;DHT22;3824;48.010;7.832;2022-09-09T12:37:04;23.90;93.60
7566;DHT22;3824;48.010;7.832;2022-09-09T12:39:34;23.80;94.20
7566;DHT22;3824;48.010;7.832;2022-09-09T12:42:02;23.60;94.50
7566;DHT22;3824;48.010;7.832;2022-09-09T12:44:29;23.50;94.90
7566;DHT22;3824;48.010;7.832;2022-09-09T12:47:00;23.60;95.00
7566;DHT22;3824;48.010;7.832;2022-09-09T12:49:31;23.60;95.10
7566;DHT22;3824;48.010;7.832;2022-09-09T12:52:01;23.60;95.10
7566;DHT22;3824;48.010;7.832;2022-09-09T12:54:31;23.60;95.30
7566;DHT22;3824;48.010;7.832;2022-09-09T12:56:58;23.50;95.60
7566;DHT22;3824;48.010;7.832;2022-09-09T12:59:27;23.30;95.60
7566;DHT22;3824;48.010;7.832;2022-09-09T13:02:01;23.20;96.00
7566;DHT22;3824;48.010;7.832;2022-09-09T13:04:28;23.00;95.80
7566;DHT22;3824;48.010;7.832;2022-09-09T13:07:07;22.90;96.00
7566;DHT22;3824;48.010;7.832;2022-09-09T13:09:43;22.80;95.90
7566;DHT22;3824;48.010;7.832;2022-09-09T13:12:14;22.80;95.80
7566;DHT22;3824;48.010;7.832;2022-09-09T13:14:44;22.90;96.00
7566;DHT22;3824;48.010;7.832;2022-09-09T13:17:19;22.80;96.10
7566;DHT22;3824;48.010;7.832;2022-09-09T13:19:48;22.80;96.10
7566;DHT22;3824;48.010;7.832;2022-09-09T13:22:29;22.70;96.10
7566;DHT22;3824;48.010;7.832;2022-09-09T13:25:00;22.60;96.30
7566;DHT22;3824;48.010;7.832;2022-09-09T13:27:31;22.30;96.10
7566;DHT22;3824;48.010;7.832;2022-09-09T13:30:00;21.90;96.00
7566;DHT22;3824;48.010;7.832;2022-09-09T13:32:28;21.50;96.50
7566;DHT22;3824;48.010;7.832;2022-09-09T13:34:58;21.10;97.00
7566;DHT22;3824;48.010;7.832;2022-09-09T13:37:31;20.90;97.60
7566;DHT22;3824;48.010;7.832;2022-09-09T13:39:59;20.70;97.70
7566;DHT22;3824;48.010;7.832;2022-09-09T13:42:28;20.60;99.00
7566;DHT22;3824;48.010;7.832;2022-09-09T13:44:56;20.50;99.80
7566;DHT22;3824;48.010;7.832;2022-09-09T13:47:29;20.50;99.90
7566;DHT22;3824;48.010;7.832;2022-09-09T13:49:57;20.50;99.90
7566;DHT22;3824;48.010;7.832;2022-09-09T13:52:24;20.70;99.90
7566;DHT22;3824;48.010;7.832;2022-09-09T13:54:54;20.90;99.90
7566;DHT22;3824;48.010;7.832;2022-09-09T13:57:24;21.10;99.90
7566;DHT22;3824;48.010;7.832;2022-09-09T13:59:53;21.30;99.90
7566;DHT22;3824;48.010;7.832;2022-09-09T14:02:20;21.60;99.90
7566;DHT22;3824;48.010;7.832;2022-09-09T14:04:49;22.00;99.90
7566;DHT22;3824;48.010;7.832;2022-09-09T14:07:20;22.30;99.60
7566;DHT22;3824;48.010;7.832;2022-09-09T14:09:47;22.60;98.90
7566;DHT22;3824;48.010;7.832;2022-09-09T14:12:18;22.70;98.50
7566;DHT22;3824;48.010;7.832;2022-09-09T14:14:45;22.90;98.20
7566;DHT22;3824;48.010;7.832;2022-09-09T14:17:12;23.10;98.20
7566;DHT22;3824;48.010;7.832;2022-09-09T14:19:39;23.20;97.90
7566;DHT22;3824;48.010;7.832;2022-09-09T14:22:06;23.50;97.70
7566;DHT22;3824;48.010;7.832;2022-09-09T14:24:33;23.70;97.50
7566;DHT22;3824;48.010;7.832;2022-09-09T14:27:00;23.90;97.30
7566;DHT22;3824;48.010;7.832;2022-09-09T14:29:29;24.00;97.10
7566;DHT22;3824;48.010;7.832;2022-09-09T14:31:55;23.80;96.90
7566;DHT22;3824;48.010;7.832;2022-09-09T14:34:22;23.70;97.20
7566;DHT22;3824;48.010;7.832;2022-09-09T14:36:49;23.50;97.50
7566;DHT22;3824;48.010;7.832;2022-09-09T14:39:16;23.60;97.80
7566;DHT22;3824;48.010;7.832;2022-09-09T14:41:43;23.60;97.90
7566;DHT22;3824;48.010;7.832;2022-09-09T14:44:11;23.70;97.60
7566;DHT22;3824;48.010;7.832;2022-09-09T14:46:39;23.70;97.60
7566;DHT22;3824;48.010;7.832;2022-09-09T14:49:07;23.70;97.70
7566;DHT22;3824;48.010;7.832;2022-09-09T14:51:36;23.70;97.80
7566;DHT22;3824;48.010;7.832;2022-09-09T14:54:03;23.70;97.90
7566;DHT22;3824;48.010;7.832;2022-09-09T14:56:31;23.60;97.90
7566;DHT22;3824;48.010;7.832;2022-09-09T14:59:00;23.40;97.90
7566;DHT22;3824;48.010;7.832;2022-09-09T15:01:28;23.30;98.10
7566;DHT22;3824;48.010;7.832;2022-09-09T15:03:58;23.10;97.80
7566;DHT22;3824;48.010;7.832;2022-09-09T15:06:27;23.00;97.90
7566;DHT22;3824;48.010;7.832;2022-09-09T15:08:55;22.90;98.10
7566;DHT22;3824;48.010;7.832;2022-09-09T15:11:25;22.80;98.20
7566;DHT22;3824;48.010;7.832;2022-09-09T15:13:53;22.80;97.50
7566;DHT22;3824;48.010;7.832;2022-09-09T15:16:22;22.80;97.20
7566;DHT22;3824;48.010;7.832;2022-09-09T15:18:51;22.70;96.80
7566;DHT22;3824;48.010;7.832;2022-09-09T15:21:24;22.70;96.50
7566;DHT22;3824;48.010;7.832;2022-09-09T15:23:51;22.60;96.20
7566;DHT22;3824;48.010;7.832;2022-09-09T15:26:18;22.60;96.00
7566;DHT22;3824;48.010;7.832;2022-09-09T15:28:46;22.50;95.80
7566;DHT22;3824;48.010;7.832;2022-09-09T15:31:15;22.40;96.10
7566;DHT22;3824;48.010;7.832;2022-09-09T15:33:47;22.30;96.20
7566;DHT22;3824;48.010;7.832;2022-09-09T15:36:15;22.20;96.30
7566;DHT22;3824;48.010;7.832;2022-09-09T15:38:44;22.00;96.30
7566;DHT22;3824;48.010;7.832;2022-09-09T15:41:11;21.80;96.50
7566;DHT22;3824;48.010;7.832;2022-09-09T15:43:39;21.80;96.80
7566;DHT22;3824;48.010;7.832;2022-09-09T15:46:23;21.60;97.00
7566;DHT22;3824;48.010;7.832;2022-09-09T15:48:51;21.50;97.10
7566;DHT22;3824;48.010;7.832;2022-09-09T15:51:18;21.50;97.30
7566;DHT22;3824;48.010;7.832;2022-09-09T15:53:46;21.40;97.40
7566;DHT22;3824;48.010;7.832;2022-09-09T15:56:13;21.40;97.70
7566;DHT22;3824;48.010;7.832;2022-09-09T15:58:40;21.30;97.80
7566;DHT22;3824;48.010;7.832;2022-09-09T16:01:09;21.20;97.80
7566;DHT22;3824;48.010;7.832;2022-09-09T16:03:39;21.20;98.10
7566;DHT22;3824;48.010;7.832;2022-09-09T16:06:07;21.10;98.30
7566;DHT22;3824;48.010;7.832;2022-09-09T16:08:34;21.00;98.60
7566;DHT22;3824;48.010;7.832;2022-09-09T16:11:07;20.90;98.70
7566;DHT22;3824;48.010;7.832;2022-09-09T16:13:35;20.80;99.00
7566;DHT22;3824;48.010;7.832;2022-09-09T16:16:02;20.60;99.70
7566;DHT22;3824;48.010;7.832;2022-09-09T16:18:34;20.40;99.90
7566;DHT22;3824;48.010;7.832;2022-09-09T16:21:01;20.10;99.90
7566;DHT22;3824;48.010;7.832;2022-09-09T16:23:28;19.90;99.90
7566;DHT22;3824;48.010;7.832;2022-09-09T16:25:55;19.50;99.90